Time;durP1;ratioP1;P1;durP2;ratioP2;P2;SDS_P1;SDS_P2;PMS_P1;PMS_P2;Temp;Humidity;BMP_temperature;BMP_pressure;BME280_temperature;BME280_humidity;BME280_pressure;Samples;Min_cycle;Max_cycle;Signal;HPM_P1;HPM_P2
2021/01/16 00:00:28;;;;;;;5.55;4.78;;;;;;;18.94;43.45;102970.97;4982706;28;20029;-72
2021/01/16 00:02:54;;;;;;;7.18;4.68;;;;;;;18.91;43.14;102970.03;4988723;28;20055;-72
2021/01/16 00:05:21;;;;;;;5.45;4.70;;;;;;;18.96;43.70;102974.50;4992157;28;20053;-72
2021/01/16 00:07:47;;;;;;;7.47;4.50;;;;;;;18.90;43.44;102968.25;4994737;28;20488;-72
2021/01/16 00:10:15;;;;;;;7.20;4.50;;;;;;;18.94;43.62;102973.59;4995671;28;20080;-72
2021/01/16 00:12:41;;;;;;;6.07;4.00;;;;;;;18.92;43.56;102960.44;4996718;28;20472;-72
2021/01/16 00:15:08;;;;;;;5.25;4.72;;;;;;;18.90;43.73;102967.38;4996790;28;20031;-71
2021/01/16 00:17:33;;;;;;;5.90;4.55;;;;;;;18.85;43.49;102963.72;4995406;28;20038;-72
2021/01/16 00:19:59;;;;;;;5.70;4.53;;;;;;;18.90;43.56;102973.50;5009614;28;20026;-72
2021/01/16 00:22:24;;;;;;;5.85;4.68;;;;;;;18.78;43.60;102952.19;4996997;28;20037;-72
2021/01/16 00:24:49;;;;;;;5.70;5.10;;;;;;;18.83;43.48;102955.81;4995082;28;20030;-72
2021/01/16 00:27:15;;;;;;;5.22;4.22;;;;;;;18.89;43.61;102970.84;4995192;28;20093;-72
2021/01/16 00:29:40;;;;;;;6.47;4.40;;;;;;;18.86;43.59;102971.63;4994277;28;20038;-72
2021/01/16 00:32:05;;;;;;;5.95;4.68;;;;;;;18.74;43.62;102944.19;4990381;28;20117;-72
2021/01/16 00:34:31;;;;;;;6.53;4.68;;;;;;;18.80;43.56;102953.13;4995409;28;20073;-72
2021/01/16 00:36:56;;;;;;;5.38;4.68;;;;;;;18.83;43.44;102960.16;4992365;28;20030;-72
2021/01/16 00:39:22;;;;;;;5.72;4.53;;;;;;;18.84;43.48;102956.69;4983547;28;20035;-72
2021/01/16 00:41:47;;;;;;;5.57;4.93;;;;;;;18.72;43.37;102945.88;4984850;28;20620;-72
2021/01/16 00:44:12;;;;;;;5.28;4.78;;;;;;;18.74;43.61;102938.97;4994676;28;20496;-72
2021/01/16 00:46:38;;;;;;;6.93;4.65;;;;;;;18.72;43.67;102927.53;4980046;28;20025;-72
2021/01/16 00:49:03;;;;;;;4.93;4.40;;;;;;;18.81;43.62;102951.41;5014635;28;21874;-71
2021/01/16 00:51:28;;;;;;;4.95;4.13;;;;;;;18.77;43.57;102937.31;5015838;28;20044;-72
2021/01/16 00:53:54;;;;;;;5.65;4.95;;;;;;;18.80;43.39;102953.13;5007440;28;20105;-72
2021/01/16 00:56:19;;;;;;;5.18;4.68;;;;;;;18.77;43.51;102946.91;4983461;28;20406;-72
2021/01/16 00:58:45;;;;;;;5.30;4.18;;;;;;;18.79;43.40;102943.50;5014210;28;20022;-72
2021/01/16 01:01:10;;;;;;;5.00;4.35;;;;;;;18.66;43.40;102923.03;5014427;28;20022;-72
2021/01/16 01:03:35;;;;;;;4.82;3.65;;;;;;;18.75;43.54;102941.63;4984049;28;20033;-72
2021/01/16 01:06:01;;;;;;;5.85;4.05;;;;;;;18.70;43.55;102927.50;5013874;28;20030;-72
2021/01/16 01:08:27;;;;;;;4.72;3.88;;;;;;;18.66;43.34;102928.28;4984402;28;20117;-72
2021/01/16 01:10:53;;;;;;;5.40;4.22;;;;;;;18.74;43.63;102937.22;5008491;28;20026;-72
2021/01/16 01:13:18;;;;;;;4.18;3.75;;;;;;;18.70;43.56;102919.63;5015213;28;20034;-72
2021/01/16 01:15:43;;;;;;;5.03;3.90;;;;;;;18.65;43.46;102913.41;4996684;28;20152;-72
2021/01/16 01:18:09;;;;;;;4.60;3.65;;;;;;;18.72;43.40;102927.53;5012952;28;20029;-72
2021/01/16 01:20:34;;;;;;;5.70;4.28;;;;;;;18.54;43.64;102897.34;5006468;28;20034;-72
2021/01/16 01:23:00;;;;;;;6.45;4.40;;;;;;;18.66;43.24;102917.78;4996001;28;20512;-72
2021/01/16 01:25:26;;;;;;;4.72;3.53;;;;;;;18.65;43.38;102913.41;5015269;28;20034;-71
2021/01/16 01:27:54;;;;;;;4.43;3.88;;;;;;;18.60;43.37;102895.75;5007132;28;20026;-71
2021/01/16 01:30:22;;;;;;;4.28;3.72;;;;;;;18.51;43.48;102872.78;5011080;28;20030;-72
2021/01/16 01:32:49;;;;;;;5.47;3.72;;;;;;;18.61;43.53;102893.19;4980222;28;20046;-72
2021/01/16 01:35:15;;;;;;;5.15;4.65;;;;;;;18.57;43.59;102889.56;5014500;28;20109;-72
2021/01/16 01:37:43;;;;;;;4.57;4.03;;;;;;;18.56;43.51;102895.63;4996465;28;20034;-72
2021/01/16 01:40:10;;;;;;;5.25;4.35;;;;;;;18.63;43.62;102906.34;5014827;28;20040;-71
2021/01/16 01:42:36;;;;;;;3.50;3.20;;;;;;;18.48;43.53;102872.69;5013924;28;20053;-72
2021/01/16 01:45:07;;;;;;;4.75;4.03;;;;;;;18.64;43.52;102905.50;5004854;28;20026;-71
2021/01/16 01:47:35;;;;;;;4.10;3.25;;;;;;;18.54;43.69;102885.97;5010791;28;20391;-72
2021/01/16 01:50:01;;;;;;;5.18;4.15;;;;;;;18.62;43.56;102908.06;5014510;28;20057;-72
2021/01/16 01:52:27;;;;;;;4.15;3.45;;;;;;;18.61;43.53;102908.91;4979042;28;20472;-72
2021/01/16 01:54:54;;;;;;;5.07;4.03;;;;;;;18.54;43.57;102896.47;5014627;28;20030;-71
2021/01/16 01:57:20;;;;;;;3.83;3.42;;;;;;;18.59;43.41;102899.22;5004932;28;20113;-71
2021/01/16 01:59:45;;;;;;;4.00;3.63;;;;;;;18.55;43.63;102898.25;4996313;28;20030;-72
2021/01/16 02:02:11;;;;;;;4.28;3.83;;;;;;;18.59;43.66;102907.97;5003552;28;20029;-72
2021/01/16 02:04:38;;;;;;;4.47;3.72;;;;;;;18.59;43.47;102912.31;5008040;28;20052;-72
2021/01/16 02:07:26;;;;;;;4.25;3.65;;;;;;;18.59;43.67;102907.97;4987707;28;20045;-72
2021/01/16 02:09:53;;;;;;;4.80;4.18;;;;;;;18.40;43.34;102880.38;5011256;28;20083;-72
2021/01/16 02:12:20;;;;;;;4.18;3.25;;;;;;;18.56;43.45;102905.25;5012176;28;20026;-72
2021/01/16 02:14:56;;;;;;;4.07;3.33;;;;;;;18.57;43.62;102905.28;5020429;28;20033;-72
2021/01/16 02:17:25;;;;;;;4.90;4.35;;;;;;;18.55;43.39;102898.25;5013303;28;20033;-72
2021/01/16 02:20:13;;;;;;;4.80;3.40;;;;;;;18.55;43.64;102898.25;5000196;28;20030;-72
2021/01/16 02:23:19;;;;;;;6.05;4.32;;;;;;;18.53;43.63;102895.56;4988935;28;20026;-72
2021/01/16 02:25:53;;;;;;;4.55;3.70;;;;;;;18.55;43.54;102893.00;5012211;28;20029;-72
2021/01/16 02:28:22;;;;;;;4.15;3.25;;;;;;;18.45;43.55;102876.13;5013795;28;20041;-71
2021/01/16 02:30:48;;;;;;;4.45;4.05;;;;;;;18.51;43.53;102881.53;5014148;28;20033;-75
2021/01/16 02:33:17;;;;;;;4.82;3.20;;;;;;;18.52;43.55;102879.81;5013775;28;20468;-76
2021/01/16 02:35:57;;;;;;;4.00;2.88;;;;;;;18.54;43.56;102878.13;4997225;28;20052;-75
2021/01/16 02:38:39;;;;;;;3.72;3.00;;;;;;;18.51;43.50;102876.31;5021703;28;20029;-75
2021/01/16 02:41:17;;;;;;;4.28;3.88;;;;;;;18.45;43.72;102864.75;5017738;28;20032;-72
2021/01/16 02:43:49;;;;;;;3.78;3.15;;;;;;;18.43;43.70;102854.25;5020773;28;20111;-72
2021/01/16 02:46:36;;;;;;;5.45;3.53;;;;;;;18.43;43.89;102856.88;5015180;28;20441;-72
2021/01/16 02:49:20;;;;;;;4.35;3.28;;;;;;;18.38;43.89;102836.63;4996037;28;20049;-72
2021/01/16 02:52:03;;;;;;;4.20;3.20;;;;;;;18.45;43.63;102846.41;5015064;28;20046;-76
2021/01/16 02:54:30;;;;;;;3.30;2.63;;;;;;;18.48;43.57;102852.63;4996275;28;20112;-76
2021/01/16 02:56:56;;;;;;;4.35;3.33;;;;;;;18.47;43.60;102845.63;5014606;28;20038;-76
2021/01/16 02:59:21;;;;;;;4.72;3.70;;;;;;;18.45;43.64;102839.44;4996974;28;20388;-76
2021/01/16 03:01:47;;;;;;;4.05;3.33;;;;;;;18.44;43.70;102840.28;5013476;28;20053;-76
2021/01/16 03:04:12;;;;;;;3.40;3.10;;;;;;;18.46;43.78;102838.59;4996898;28;20387;-76
2021/01/16 03:06:48;;;;;;;3.63;2.97;;;;;;;18.46;43.77;102833.34;4996472;28;20038;-76
2021/01/16 03:09:13;;;;;;;4.82;3.50;;;;;;;18.45;43.56;102833.31;4996830;28;20026;-76
2021/01/16 03:11:40;;;;;;;4.00;3.10;;;;;;;18.45;43.62;102828.97;5014114;28;20026;-75
2021/01/16 03:14:08;;;;;;;4.72;3.35;;;;;;;18.44;43.51;102819.31;5013771;28;20070;-76
2021/01/16 03:16:37;;;;;;;4.22;3.80;;;;;;;18.41;43.75;102821.91;4996232;28;20028;-76
2021/01/16 03:19:06;;;;;;;3.75;3.20;;;;;;;18.43;43.79;102814.97;5013604;28;20026;-76
2021/01/16 03:21:32;;;;;;;4.03;3.53;;;;;;;18.41;43.79;102811.41;4996367;28;20026;-76
2021/01/16 03:23:57;;;;;;;3.78;2.92;;;;;;;18.41;43.85;102806.19;4979597;28;20033;-75
2021/01/16 03:26:22;;;;;;;3.47;2.85;;;;;;;18.39;43.80;102801.75;4980017;28;20144;-76
2021/01/16 03:28:48;;;;;;;3.92;3.17;;;;;;;18.39;43.65;102801.75;4995750;28;20030;-72
2021/01/16 03:31:13;;;;;;;3.33;3.03;;;;;;;18.37;43.54;102799.06;5012895;28;20030;-72
2021/01/16 03:33:39;;;;;;;3.33;2.60;;;;;;;18.33;43.79;102789.34;5010377;28;20038;-72
2021/01/16 03:36:04;;;;;;;4.03;3.17;;;;;;;18.33;43.78;102793.69;5006567;28;20034;-72
2021/01/16 03:38:30;;;;;;;3.55;2.97;;;;;;;18.23;43.63;102778.59;4993730;28;20033;-72
2021/01/16 03:40:55;;;;;;;4.13;3.53;;;;;;;18.41;43.59;102807.91;4989185;28;20018;-72
2021/01/16 03:43:21;;;;;;;3.30;2.88;;;;;;;18.28;43.64;102783.13;4998894;28;20049;-72
2021/01/16 03:45:46;;;;;;;3.40;2.83;;;;;;;18.35;43.66;102798.13;5015738;28;20084;-72
2021/01/16 03:48:14;;;;;;;4.00;2.90;;;;;;;18.31;43.63;102790.16;4992225;28;20022;-72
2021/01/16 03:50:40;;;;;;;4.03;3.15;;;;;;;18.27;43.66;102783.97;4997262;28;20048;-72
2021/01/16 03:53:06;;;;;;;3.75;3.35;;;;;;;18.26;43.62;102791.78;4998858;28;20026;-72
2021/01/16 03:55:31;;;;;;;4.57;3.35;;;;;;;18.28;43.94;102787.47;5016610;28;20420;-72
2021/01/16 03:57:56;;;;;;;3.13;2.65;;;;;;;18.32;43.68;102791.94;4998848;28;20037;-72
2021/01/16 04:00:22;;;;;;;4.22;3.13;;;;;;;18.36;43.97;102799.03;4998809;28;20038;-72
2021/01/16 04:02:47;;;;;;;3.10;2.80;;;;;;;18.33;43.88;102789.34;5016099;28;20029;-72
2021/01/16 04:05:13;;;;;;;4.13;2.90;;;;;;;18.33;43.94;102793.69;5016268;28;20041;-72
2021/01/16 04:07:38;;;;;;;3.05;2.70;;;;;;;18.20;43.62;102766.31;5017772;28;20034;-72
2021/01/16 04:10:05;;;;;;;3.55;2.90;;;;;;;18.22;43.78;102762.00;5005852;28;20034;-72
2021/01/16 04:12:30;;;;;;;4.07;3.15;;;;;;;18.32;43.84;102777.09;4997074;28;20058;-72
2021/01/16 04:14:56;;;;;;;2.85;2.50;;;;;;;18.22;43.65;102759.38;5015450;28;20061;-72
2021/01/16 04:17:22;;;;;;;2.90;2.60;;;;;;;18.23;43.61;102757.66;5016166;28;20045;-72
2021/01/16 04:19:47;;;;;;;3.28;2.63;;;;;;;18.31;43.67;102764.84;4998870;28;20033;-72
2021/01/16 04:22:12;;;;;;;3.08;2.47;;;;;;;18.25;43.82;102754.22;5015983;28;20092;-72
2021/01/16 04:24:38;;;;;;;4.40;3.10;;;;;;;18.18;43.90;102741.81;5014714;28;20060;-72
2021/01/16 04:27:04;;;;;;;2.85;2.40;;;;;;;18.29;43.84;102750.84;4997270;28;20032;-72
2021/01/16 04:29:29;;;;;;;3.28;2.85;;;;;;;18.16;43.92;102733.94;4989849;28;20085;-72
2021/01/16 04:31:54;;;;;;;3.20;2.90;;;;;;;18.16;43.93;102727.81;5015713;28;20034;-72
2021/01/16 04:34:20;;;;;;;3.38;3.05;;;;;;;18.26;43.69;102747.25;4990263;28;20061;-72
2021/01/16 04:36:46;;;;;;;2.75;2.45;;;;;;;18.26;43.98;102739.41;5022742;28;20494;-72
2021/01/16 04:39:11;;;;;;;4.05;2.17;;;;;;;18.23;43.65;102734.06;5010325;28;20547;-72
2021/01/16 04:41:37;;;;;;;3.67;2.97;;;;;;;18.27;43.89;102746.41;5014478;28;20076;-72
2021/01/16 04:44:03;;;;;;;4.97;3.03;;;;;;;18.09;43.96;102705.81;5006965;28;20054;-72
2021/01/16 04:46:29;;;;;;;3.28;2.63;;;;;;;18.26;43.71;102735.06;5005299;28;20472;-75
2021/01/16 04:49:02;;;;;;;3.65;2.70;;;;;;;18.21;43.57;102729.69;5011179;28;20071;-76
2021/01/16 04:51:33;;;;;;;3.10;2.70;;;;;;;18.25;44.14;102733.28;5013811;28;20080;-76
2021/01/16 04:54:00;;;;;;;2.97;2.67;;;;;;;18.18;43.90;102720.84;5014713;28;20498;-76
2021/01/16 04:56:29;;;;;;;3.03;2.33;;;;;;;18.21;43.69;102726.19;5003907;28;20026;-76
2021/01/16 04:58:55;;;;;;;3.63;2.63;;;;;;;18.22;43.97;102727.94;4996794;28;20030;-76
2021/01/16 05:01:21;;;;;;;3.00;2.63;;;;;;;18.17;43.87;102717.38;5015687;28;20034;-76
2021/01/16 05:03:50;;;;;;;4.00;2.80;;;;;;;18.22;43.77;102727.94;5013892;28;20483;-76
2021/01/16 05:06:18;;;;;;;3.90;2.85;;;;;;;18.17;43.85;102713.88;4998305;28;20418;-76
2021/01/16 05:08:44;;;;;;;3.10;2.60;;;;;;;18.19;43.96;102714.78;5003958;28;20060;-76
2021/01/16 05:11:24;;;;;;;2.60;2.40;;;;;;;18.22;43.71;102714.84;4971479;28;20484;-76
2021/01/16 05:14:09;;;;;;;3.17;2.70;;;;;;;18.18;43.74;102706.03;4978654;28;20484;-76
2021/01/16 05:16:44;;;;;;;3.05;2.45;;;;;;;18.17;43.99;102703.41;5012437;28;20483;-76
2021/01/16 05:19:17;;;;;;;2.42;2.22;;;;;;;18.15;44.01;102700.72;5015992;28;20029;-76
2021/01/16 05:21:43;;;;;;;3.85;2.55;;;;;;;18.19;44.10;102696.44;4998140;28;20026;-75
2021/01/16 05:24:13;;;;;;;2.78;2.42;;;;;;;18.15;44.17;102692.88;5014543;28;20438;-76
2021/01/16 05:27:03;;;;;;;3.95;2.42;;;;;;;18.16;44.06;102692.03;5015135;28;20068;-75
2021/01/16 05:29:31;;;;;;;3.15;2.70;;;;;;;18.18;43.85;102697.28;5008709;28;20503;-76
2021/01/16 05:31:58;;;;;;;3.55;2.53;;;;;;;18.24;43.84;102694.84;4997711;28;20030;-76
2021/01/16 05:34:24;;;;;;;3.15;2.33;;;;;;;18.35;43.50;102688.13;5015337;28;20061;-76
2021/01/16 05:36:50;;;;;;;3.85;2.33;;;;;;;18.37;43.60;102685.56;5013867;28;20018;-76
2021/01/16 05:39:18;;;;;;;3.38;2.50;;;;;;;18.34;43.35;102682.84;4980451;28;20392;-76
2021/01/16 05:41:44;;;;;;;4.22;2.55;;;;;;;18.40;43.39;102676.03;4996262;28;20468;-76
2021/01/16 05:44:10;;;;;;;5.32;1.83;;;;;;;18.48;43.50;102677.09;5014916;28;20080;-75
2021/01/16 05:46:37;;;;;;;3.30;2.80;;;;;;;18.45;43.46;102671.78;4995474;28;20435;-75
2021/01/16 05:49:03;;;;;;;3.08;2.20;;;;;;;18.43;43.36;102663.03;4997493;28;20052;-76
2021/01/16 05:51:29;;;;;;;3.45;2.30;;;;;;;18.48;43.53;102663.13;4993678;28;20538;-76
2021/01/16 05:53:59;;;;;;;2.65;2.00;;;;;;;18.53;43.26;102666.75;4971944;28;20493;-76
2021/01/16 05:56:27;;;;;;;2.92;2.63;;;;;;;18.52;43.34;102655.38;5014821;28;20117;-76
2021/01/16 05:58:54;;;;;;;2.90;2.53;;;;;;;18.52;43.35;102659.72;5013591;28;20105;-72
2021/01/16 06:01:22;;;;;;;3.45;2.50;;;;;;;18.48;43.12;102637.81;5014121;28;20541;-72
2021/01/16 06:03:51;;;;;;;3.33;2.40;;;;;;;18.50;43.12;102641.34;4984135;28;20022;-72
2021/01/16 06:06:17;;;;;;;3.00;2.00;;;;;;;18.48;43.49;102636.91;5012542;28;20042;-72
2021/01/16 06:08:50;;;;;;;2.40;1.90;;;;;;;18.60;43.39;102650.34;5010298;28;20022;-72
2021/01/16 06:11:16;;;;;;;3.57;2.90;;;;;;;18.62;43.41;102642.53;5008981;28;20040;-72
2021/01/16 06:13:43;;;;;;;2.45;1.95;;;;;;;18.55;43.24;102633.63;4986573;28;20041;-72
2021/01/16 06:16:17;;;;;;;2.40;1.98;;;;;;;18.49;43.26;102621.25;5014174;28;20032;-72
2021/01/16 06:18:50;;;;;;;2.30;1.70;;;;;;;18.56;42.96;102630.16;4995110;28;20390;-71
2021/01/16 06:21:26;;;;;;;2.60;2.15;;;;;;;18.57;43.36;102624.03;5013488;28;20093;-72
2021/01/16 06:23:54;;;;;;;3.13;2.53;;;;;;;18.66;43.23;102632.16;4999389;28;20040;-72
2021/01/16 06:26:20;;;;;;;3.28;2.20;;;;;;;18.53;42.98;102616.97;5016899;28;20045;-72
2021/01/16 06:29:00;;;;;;;2.90;2.05;;;;;;;18.71;43.15;102629.63;5013898;28;20026;-72
2021/01/16 06:31:29;;;;;;;2.40;1.90;;;;;;;18.68;43.09;102630.47;5013323;28;20271;-76
2021/01/16 06:34:08;;;;;;;2.58;2.13;;;;;;;18.68;43.06;102622.59;4978233;28;20026;-76
2021/01/16 06:36:35;;;;;;;4.05;2.00;;;;;;;18.69;43.05;102619.13;4994659;28;20365;-76
2021/01/16 06:39:08;;;;;;;2.67;1.98;;;;;;;18.67;43.14;102612.97;4986801;28;20029;-76
2021/01/16 06:41:36;;;;;;;3.92;1.90;;;;;;;18.71;43.11;102620.03;5013820;28;20026;-77
2021/01/16 06:44:12;;;;;;;2.03;1.60;;;;;;;18.78;42.92;102619.31;5010509;28;20057;-74
2021/01/16 06:46:43;;;;;;;3.10;2.25;;;;;;;18.83;42.76;102619.41;4979510;28;20124;-79
2021/01/16 06:49:20;;;;;;;2.58;2.30;;;;;;;18.81;42.99;102618.50;4995072;28;20038;-81
2021/01/16 06:51:45;;;;;;;2.80;2.08;;;;;;;18.87;42.89;102626.50;5010342;28;20130;-78
2021/01/16 06:54:11;;;;;;;2.50;1.98;;;;;;;18.88;42.60;102626.53;4994641;28;20113;-76
2021/01/16 06:56:41;;;;;;;2.72;1.88;;;;;;;18.85;42.67;102620.31;4992684;28;20038;-73
2021/01/16 06:59:13;;;;;;;2.80;2.13;;;;;;;18.89;42.89;102630.03;4973599;28;20045;-72
2021/01/16 07:01:41;;;;;;;2.85;2.17;;;;;;;18.90;42.81;102627.44;4992835;28;20034;-71
2021/01/16 07:04:10;;;;;;;3.50;1.58;;;;;;;18.90;42.58;102627.44;4988851;28;20029;-72
2021/01/16 07:06:47;;;;;;;2.78;1.85;;;;;;;18.76;42.92;102609.66;4993422;28;20054;-72
2021/01/16 07:09:21;;;;;;;2.45;2.25;;;;;;;18.80;42.63;102607.13;5004851;28;20037;-72
2021/01/16 07:11:48;;;;;;;3.38;1.63;;;;;;;18.84;42.29;102606.34;4991518;28;20030;-72
2021/01/16 07:14:15;;;;;;;2.15;1.63;;;;;;;18.84;42.64;102610.69;4992320;28;20067;-72
2021/01/16 07:16:42;;;;;;;3.40;1.83;;;;;;;18.97;42.84;102627.56;4999117;28;20034;-74
2021/01/16 07:19:09;;;;;;;2.78;1.60;;;;;;;19.01;42.74;102618.91;4985021;28;20034;-78
2021/01/16 07:21:41;;;;;;;2.10;1.67;;;;;;;19.08;42.88;102620.84;5016743;28;20113;-77
2021/01/16 07:24:10;;;;;;;2.35;1.80;;;;;;;19.05;43.15;102631.25;4988046;28;20030;-77
2021/01/16 07:26:36;;;;;;;2.30;1.77;;;;;;;19.02;42.92;102618.97;4999262;28;20436;-79
2021/01/16 07:29:07;;;;;;;2.60;2.00;;;;;;;18.96;42.98;102613.56;4983832;28;20097;-79
2021/01/16 07:31:38;;;;;;;2.67;2.30;;;;;;;18.95;43.02;102619.69;4984136;28;20121;-80
2021/01/16 07:34:05;;;;;;;1.85;1.48;;;;;;;18.91;42.94;102613.50;5017282;28;20026;-80
2021/01/16 07:36:31;;;;;;;2.60;2.05;;;;;;;18.89;43.03;102599.47;5016116;28;20365;-79
2021/01/16 07:39:03;;;;;;;1.98;1.67;;;;;;;18.89;43.49;102607.31;4995685;28;20499;-79
2021/01/16 07:41:31;;;;;;;4.22;1.90;;;;;;;18.92;43.17;102603.91;5015678;28;20113;-76
2021/01/16 07:44:08;;;;;;;3.03;1.55;;;;;;;18.94;43.09;102599.56;5018118;28;20096;-76
2021/01/16 07:46:36;;;;;;;2.88;2.20;;;;;;;18.95;43.04;102600.47;5018979;28;20439;-78
2021/01/16 07:49:05;;;;;;;3.53;1.50;;;;;;;18.90;43.14;102595.09;5018967;28;20084;-78
2021/01/16 07:51:40;;;;;;;3.65;2.13;;;;;;;18.90;42.95;102585.50;5019122;28;20116;-79
2021/01/16 07:54:07;;;;;;;2.50;2.05;;;;;;;18.93;43.12;102582.06;5002352;28;20026;-78
2021/01/16 07:56:57;;;;;;;3.58;2.25;;;;;;;18.95;43.04;102587.34;5000799;28;20026;-77
2021/01/16 07:59:32;;;;;;;3.13;2.05;;;;;;;18.95;42.84;102584.72;5028824;28;20464;-76
2021/01/16 08:02:03;;;;;;;2.60;1.90;;;;;;;18.98;42.81;102587.38;5017337;28;20045;-77
2021/01/16 08:04:49;;;;;;;2.63;1.77;;;;;;;18.97;43.10;102593.47;5002053;28;20022;-78
2021/01/16 08:07:28;;;;;;;2.83;1.85;;;;;;;18.95;42.84;102579.47;5015403;28;20029;-73
2021/01/16 08:10:02;;;;;;;2.35;1.90;;;;;;;18.98;42.88;102579.53;5016658;28;20030;-72
2021/01/16 08:12:28;;;;;;;2.20;1.77;;;;;;;18.83;42.92;102557.38;5006273;28;20085;-72
2021/01/16 08:15:01;;;;;;;2.97;1.70;;;;;;;18.97;42.88;102576.00;5012032;28;20061;-79
2021/01/16 08:17:32;;;;;;;2.90;1.90;;;;;;;18.99;42.74;102563.81;5012359;28;20026;-77
2021/01/16 08:20:00;;;;;;;2.08;1.75;;;;;;;19.00;42.86;102569.97;5017037;28;20026;-77
2021/01/16 08:22:40;;;;;;;2.13;1.63;;;;;;;18.96;42.90;102557.63;5006624;28;20034;-73
2021/01/16 08:25:08;;;;;;;2.97;1.80;;;;;;;19.00;42.82;102551.59;4997252;28;20018;-73
2021/01/16 08:27:36;;;;;;;1.95;1.50;;;;;;;19.01;42.92;102550.75;5009736;28;20046;-72
2021/01/16 08:30:10;;;;;;;3.00;2.38;;;;;;;18.89;42.68;102536.56;5010979;28;20030;-73
2021/01/16 08:32:57;;;;;;;2.42;1.77;;;;;;;19.04;42.76;102554.31;4995046;28;20034;-73
2021/01/16 08:35:28;;;;;;;1.88;1.45;;;;;;;18.89;42.72;102522.56;5009182;28;20030;-72
2021/01/16 08:37:54;;;;;;;1.90;1.40;;;;;;;19.05;42.86;102545.63;5019532;28;20073;-78
2021/01/16 08:40:34;;;;;;;2.05;1.60;;;;;;;19.01;42.76;102535.91;5022103;28;20529;-78
2021/01/16 08:43:00;;;;;;;1.80;1.20;;;;;;;19.03;42.61;102538.56;5004936;28;20054;-78
2021/01/16 08:45:26;;;;;;;1.90;1.40;;;;;;;19.01;42.55;102527.16;5013393;28;20027;-78
2021/01/16 08:47:53;;;;;;;2.08;1.55;;;;;;;19.01;42.76;102528.03;5021102;28;20118;-77
2021/01/16 08:50:20;;;;;;;2.30;1.70;;;;;;;19.08;42.49;102526.44;4997436;28;20365;-78
2021/01/16 08:52:46;;;;;;;3.38;1.88;;;;;;;19.11;42.43;102523.84;4986875;28;20026;-79
2021/01/16 08:55:12;;;;;;;4.03;2.30;;;;;;;19.12;42.35;102525.63;5017893;28;20438;-79
2021/01/16 08:57:38;;;;;;;3.05;2.17;;;;;;;19.08;42.31;102518.56;5018037;28;20369;-79
2021/01/16 09:00:22;;;;;;;2.72;2.10;;;;;;;19.16;42.20;102524.84;4986085;28;20124;-78
2021/01/16 09:03:07;;;;;;;3.08;2.00;;;;;;;19.18;42.18;102512.63;4991897;28;20469;-78
2021/01/16 09:05:33;;;;;;;4.55;2.53;;;;;;;19.19;42.37;102520.53;4983981;28;20045;-77
2021/01/16 09:08:00;;;;;;;3.55;2.70;;;;;;;19.19;42.63;102515.28;5000811;28;20553;-78
2021/01/16 09:10:27;;;;;;;6.13;3.40;;;;;;;19.21;42.18;102513.56;5018038;28;20041;-77
2021/01/16 09:12:54;;;;;;;7.53;2.53;;;;;;;19.27;42.32;102510.19;5011299;28;20427;-77
2021/01/16 09:15:20;;;;;;;4.90;2.60;;;;;;;19.20;42.77;102514.44;5006380;28;20033;-76
2021/01/16 09:18:03;;;;;;;12.82;3.70;;;;;;;19.14;42.72;102516.06;4999554;28;20153;-76
2021/01/16 09:20:30;;;;;;;4.95;2.92;;;;;;;19.19;42.75;102515.28;4978894;28;20034;-75
2021/01/16 09:22:55;;;;;;;8.13;3.13;;;;;;;19.17;43.08;102509.13;4990377;28;20065;-75
2021/01/16 09:25:40;;;;;;;8.20;3.03;;;;;;;19.17;43.00;102508.25;4989654;28;20037;-73
2021/01/16 09:28:05;;;;;;;4.78;2.88;;;;;;;19.19;43.35;102511.78;4992269;28;20575;-73
2021/01/16 09:30:31;;;;;;;5.13;3.00;;;;;;;19.15;43.53;102499.47;4979109;28;20026;-73
2021/01/16 09:33:17;;;;;;;9.35;2.75;;;;;;;19.16;43.27;102509.09;4995560;28;20469;-74
2021/01/16 09:35:42;;;;;;;7.70;3.50;;;;;;;19.19;43.48;102506.53;5011740;28;20073;-76
2021/01/16 09:38:18;;;;;;;10.05;3.17;;;;;;;19.11;43.22;102489.75;4997185;28;20117;-75
2021/01/16 09:40:44;;;;;;;8.20;2.63;;;;;;;19.22;42.99;102506.56;5015065;28;20079;-75
2021/01/16 09:43:17;;;;;;;4.38;2.45;;;;;;;19.24;43.39;102512.75;4996210;28;20534;-75
2021/01/16 09:45:59;;;;;;;3.88;2.80;;;;;;;19.15;43.29;102497.72;4981246;28;20038;-75
2021/01/16 09:48:31;;;;;;;5.80;2.92;;;;;;;19.27;43.34;102518.03;4997712;28;20495;-75
2021/01/16 09:50:57;;;;;;;2.97;2.20;;;;;;;19.19;43.55;102504.81;4997524;28;20034;-74
2021/01/16 09:53:25;;;;;;;3.42;2.50;;;;;;;19.19;43.74;102485.56;4984316;28;20026;-74
2021/01/16 09:55:53;;;;;;;3.70;2.60;;;;;;;19.26;43.95;102496.19;5013062;28;20464;-74
2021/01/16 09:58:31;;;;;;;4.93;2.80;;;;;;;19.16;43.81;102498.59;5011279;28;20056;-74
2021/01/16 10:01:22;;;;;;;7.32;3.17;;;;;;;19.22;43.75;102501.31;4993341;28;20054;-74
2021/01/16 10:03:49;;;;;;;5.45;3.28;;;;;;;19.06;44.24;102480.94;4984471;28;20049;-74
2021/01/16 10:06:18;;;;;;;5.60;2.83;;;;;;;19.01;43.81;102469.47;4996864;28;20036;-74
2021/01/16 10:08:47;;;;;;;5.63;2.53;;;;;;;19.13;43.78;102485.44;5013730;28;20080;-74
2021/01/16 10:11:14;;;;;;;6.05;3.25;;;;;;;19.03;44.17;102470.41;4997104;28;20468;-74
2021/01/16 10:13:40;;;;;;;5.82;3.03;;;;;;;19.03;43.91;102473.91;5011069;28;20027;-74
2021/01/16 10:16:15;;;;;;;4.28;2.42;;;;;;;19.08;44.00;102474.00;5008464;28;20088;-74
2021/01/16 10:18:41;;;;;;;5.68;2.25;;;;;;;19.16;43.92;102480.25;5011495;28;20072;-77
2021/01/16 10:21:20;;;;;;;9.52;2.97;;;;;;;19.16;43.77;102478.50;4980261;28;20396;-79
2021/01/16 10:23:45;;;;;;;6.53;3.05;;;;;;;19.20;43.63;102476.84;4997076;28;20427;-79
2021/01/16 10:26:17;;;;;;;11.57;2.78;;;;;;;19.03;43.95;102437.19;5012755;28;20033;-73
2021/01/16 10:28:48;;;;;;;4.18;2.63;;;;;;;19.17;43.95;102468.91;5013632;28;20026;-74
2021/01/16 10:31:21;;;;;;;8.05;3.50;;;;;;;19.15;43.82;102458.38;5012164;28;20088;-74
2021/01/16 10:33:47;;;;;;;4.43;2.35;;;;;;;19.05;43.82;102434.59;4995827;28;20107;-73
2021/01/16 10:36:15;;;;;;;3.67;2.67;;;;;;;19.19;43.77;102454.09;4994171;28;20034;-74
2021/01/16 10:38:43;;;;;;;3.88;2.60;;;;;;;19.19;43.86;102454.09;5011424;28;20088;-74
2021/01/16 10:41:10;;;;;;;3.55;2.30;;;;;;;19.22;43.75;102457.63;5011719;28;20128;-74
2021/01/16 10:43:36;;;;;;;3.38;2.63;;;;;;;19.17;43.94;102440.94;4985487;28;20077;-74
2021/01/16 10:46:09;;;;;;;2.88;2.22;;;;;;;19.07;43.88;102409.31;5016172;28;20428;-74
2021/01/16 10:48:39;;;;;;;3.60;2.55;;;;;;;19.18;43.62;102419.13;5013584;28;20383;-79
2021/01/16 10:51:07;;;;;;;3.40;2.40;;;;;;;19.15;43.56;102413.81;5012750;28;20037;-78
2021/01/16 10:53:40;;;;;;;3.17;2.20;;;;;;;19.15;43.66;102405.94;5011418;28;20037;-79
2021/01/16 10:56:13;;;;;;;3.08;2.63;;;;;;;19.23;43.71;102419.16;4996466;28;20387;-74
2021/01/16 10:58:40;;;;;;;3.50;2.75;;;;;;;19.13;43.58;102397.16;4994671;28;20034;-74
2021/01/16 11:01:08;;;;;;;3.60;2.25;;;;;;;19.06;43.73;102374.31;5012385;28;20026;-74
2021/01/16 11:03:34;;;;;;;4.13;2.70;;;;;;;19.22;43.67;102394.69;5011725;28;20096;-74
2021/01/16 11:06:07;;;;;;;3.03;1.77;;;;;;;19.08;43.63;102367.38;4995985;28;20029;-75
2021/01/16 11:08:34;;;;;;;;;;;;;;;19.20;43.62;102377.19;4990959;28;20023;-78
2021/01/16 11:11:00;;;;;;;3.25;2.40;;;;;;;19.19;43.38;102367.53;5013059;28;19951;-79
2021/01/16 11:13:28;;;;;;;3.08;2.05;;;;;;;19.22;43.82;102363.22;5007897;28;20042;-79
2021/01/16 11:16:11;;;;;;;3.08;2.40;;;;;;;19.20;43.57;102361.44;5011972;28;20033;-78
2021/01/16 11:18:37;;;;;;;3.00;2.50;;;;;;;19.22;43.45;102351.84;4996119;28;20407;-79
2021/01/16 11:21:05;;;;;;;3.55;2.88;;;;;;;19.20;43.61;102351.84;4984763;28;20041;-79
2021/01/16 11:23:34;;;;;;;4.70;2.72;;;;;;;19.17;43.41;102343.91;4980180;28;20018;-78
2021/01/16 11:26:08;;;;;;;3.97;2.22;;;;;;;19.17;43.45;102332.53;5013965;28;20108;-79
2021/01/16 11:28:55;;;;;;;4.75;2.47;;;;;;;19.23;43.48;102332.63;5005783;28;20376;-79
2021/01/16 11:31:38;;;;;;;3.20;2.20;;;;;;;19.21;43.50;102323.88;5003017;28;20030;-79
2021/01/16 11:34:11;;;;;;;3.20;2.38;;;;;;;19.24;43.40;102318.66;4996270;28;20030;-78